Terminal Aerodrome Forecast
Issued by NWS

Home | Current Version | Previous Version | Text Only | Print | Product List | Glossary On
Versions: 1 2 3 4 5 6 7 8 9 10 11 12 13 14 15 16
000
FTUS46 KSEW 222300
TAFCLM
TAF
KCLM 222323Z 2300/2324 24010KT P6SM SCT045 BKN150
     FM230400 VRB04KT P6SM BKN060 OVC120
     FM231200 VRB04KT P6SM OVC050
     FM231400 VRB04KT P6SM -RA OVC045
     FM231800 24006KT P6SM -RA OVC025
     FM232000 25006KT 5SM -RA BR OVC020=

USA.gov is the U.S. government's official web portal to all federal, state and local government web resources and services.